sensor_id;sensor_type;location;lat;lon;timestamp;temperature;humidity
11836;DHT22;5977;51.972;7.640;2023-04-01T00:00:33;17.60;77.40
11836;DHT22;5977;51.972;7.640;2023-04-01T00:03:01;17.50;77.10
11836;DHT22;5977;51.972;7.640;2023-04-01T00:05:29;17.60;77.10
11836;DHT22;5977;51.972;7.640;2023-04-01T00:07:57;17.60;77.00
11836;DHT22;5977;51.972;7.640;2023-04-01T00:10:26;17.60;76.70
11836;DHT22;5977;51.972;7.640;2023-04-01T00:12:54;17.50;76.90
11836;DHT22;5977;51.972;7.640;2023-04-01T00:15:22;17.40;76.70
11836;DHT22;5977;51.972;7.640;2023-04-01T00:17:50;17.70;77.30
11836;DHT22;5977;51.972;7.640;2023-04-01T00:20:18;17.60;76.50
11836;DHT22;5977;51.972;7.640;2023-04-01T00:22:46;17.50;76.40
11836;DHT22;5977;51.972;7.640;2023-04-01T00:25:14;17.60;76.50
11836;DHT22;5977;51.972;7.640;2023-04-01T00:27:43;17.60;76.20
11836;DHT22;5977;51.972;7.640;2023-04-01T00:30:12;17.50;76.30
11836;DHT22;5977;51.972;7.640;2023-04-01T00:32:40;17.60;77.20
11836;DHT22;5977;51.972;7.640;2023-04-01T00:35:08;17.50;76.60
11836;DHT22;5977;51.972;7.640;2023-04-01T00:37:37;17.50;76.60
11836;DHT22;5977;51.972;7.640;2023-04-01T00:40:08;17.30;77.60
11836;DHT22;5977;51.972;7.640;2023-04-01T00:42:47;17.40;77.70
11836;DHT22;5977;51.972;7.640;2023-04-01T00:45:28;17.50;77.50
11836;DHT22;5977;51.972;7.640;2023-04-01T00:48:00;17.50;76.80
11836;DHT22;5977;51.972;7.640;2023-04-01T00:50:31;17.50;77.20
11836;DHT22;5977;51.972;7.640;2023-04-01T00:53:00;17.40;76.40
11836;DHT22;5977;51.972;7.640;2023-04-01T00:55:30;17.40;76.90
11836;DHT22;5977;51.972;7.640;2023-04-01T00:58:03;17.50;76.80
11836;DHT22;5977;51.972;7.640;2023-04-01T01:00:32;17.50;77.00
11836;DHT22;5977;51.972;7.640;2023-04-01T01:03:01;17.20;77.50
11836;DHT22;5977;51.972;7.640;2023-04-01T01:05:37;17.30;76.60
11836;DHT22;5977;51.972;7.640;2023-04-01T01:08:18;17.20;77.70
11836;DHT22;5977;51.972;7.640;2023-04-01T01:10:50;17.30;77.70
11836;DHT22;5977;51.972;7.640;2023-04-01T01:13:24;17.20;77.00
11836;DHT22;5977;51.972;7.640;2023-04-01T01:15:57;17.20;77.60
11836;DHT22;5977;51.972;7.640;2023-04-01T01:18:31;17.40;76.90
11836;DHT22;5977;51.972;7.640;2023-04-01T01:21:37;17.20;76.40
11836;DHT22;5977;51.972;7.640;2023-04-01T01:27:09;17.10;77.00
11836;DHT22;5977;51.972;7.640;2023-04-01T01:33:15;17.00;78.70
11836;DHT22;5977;51.972;7.640;2023-04-01T01:35:50;17.20;77.70
11836;DHT22;5977;51.972;7.640;2023-04-01T01:38:23;17.10;78.30
11836;DHT22;5977;51.972;7.640;2023-04-01T01:40:59;17.00;78.40
11836;DHT22;5977;51.972;7.640;2023-04-01T01:43:31;17.20;80.10
11836;DHT22;5977;51.972;7.640;2023-04-01T01:46:03;17.00;79.00
11836;DHT22;5977;51.972;7.640;2023-04-01T01:48:35;17.10;80.80
11836;DHT22;5977;51.972;7.640;2023-04-01T01:51:05;17.00;79.50
11836;DHT22;5977;51.972;7.640;2023-04-01T01:53:33;17.20;80.20
11836;DHT22;5977;51.972;7.640;2023-04-01T01:56:02;17.20;80.20
11836;DHT22;5977;51.972;7.640;2023-04-01T01:58:36;17.30;79.70
11836;DHT22;5977;51.972;7.640;2023-04-01T02:01:13;17.30;80.10
11836;DHT22;5977;51.972;7.640;2023-04-01T02:03:43;17.10;80.20
11836;DHT22;5977;51.972;7.640;2023-04-01T02:06:17;17.20;81.60
11836;DHT22;5977;51.972;7.640;2023-04-01T02:08:48;17.10;81.20
11836;DHT22;5977;51.972;7.640;2023-04-01T02:11:20;17.10;81.40
11836;DHT22;5977;51.972;7.640;2023-04-01T02:13:53;17.30;81.50
11836;DHT22;5977;51.972;7.640;2023-04-01T02:16:25;17.10;80.60
11836;DHT22;5977;51.972;7.640;2023-04-01T02:18:57;17.10;80.90
11836;DHT22;5977;51.972;7.640;2023-04-01T02:21:31;17.20;81.60
11836;DHT22;5977;51.972;7.640;2023-04-01T02:24:01;17.20;81.00
11836;DHT22;5977;51.972;7.640;2023-04-01T02:26:30;17.30;80.50
11836;DHT22;5977;51.972;7.640;2023-04-01T02:28:59;17.30;80.80
11836;DHT22;5977;51.972;7.640;2023-04-01T02:31:28;17.20;80.30
11836;DHT22;5977;51.972;7.640;2023-04-01T02:33:57;17.30;80.40
11836;DHT22;5977;51.972;7.640;2023-04-01T02:36:25;17.30;80.20
11836;DHT22;5977;51.972;7.640;2023-04-01T02:38:56;17.20;80.50
11836;DHT22;5977;51.972;7.640;2023-04-01T02:41:28;17.20;80.20
11836;DHT22;5977;51.972;7.640;2023-04-01T02:43:56;17.30;80.30
11836;DHT22;5977;51.972;7.640;2023-04-01T02:46:26;17.30;79.70
11836;DHT22;5977;51.972;7.640;2023-04-01T02:48:53;17.20;80.10
11836;DHT22;5977;51.972;7.640;2023-04-01T02:51:21;17.10;80.60
11836;DHT22;5977;51.972;7.640;2023-04-01T02:53:49;17.10;80.30
11836;DHT22;5977;51.972;7.640;2023-04-01T02:56:18;17.10;80.70
11836;DHT22;5977;51.972;7.640;2023-04-01T02:58:48;17.10;80.10
11836;DHT22;5977;51.972;7.640;2023-04-01T03:01:16;17.00;80.70
11836;DHT22;5977;51.972;7.640;2023-04-01T03:03:44;17.00;80.40
11836;DHT22;5977;51.972;7.640;2023-04-01T03:06:14;17.10;81.20
11836;DHT22;5977;51.972;7.640;2023-04-01T03:08:42;17.10;81.10
11836;DHT22;5977;51.972;7.640;2023-04-01T03:11:11;17.10;81.10
11836;DHT22;5977;51.972;7.640;2023-04-01T03:13:41;17.10;80.40
11836;DHT22;5977;51.972;7.640;2023-04-01T03:16:10;17.10;80.90
11836;DHT22;5977;51.972;7.640;2023-04-01T03:18:38;16.90;80.80
11836;DHT22;5977;51.972;7.640;2023-04-01T03:21:13;17.00;80.70
11836;DHT22;5977;51.972;7.640;2023-04-01T03:23:42;17.10;80.30
11836;DHT22;5977;51.972;7.640;2023-04-01T03:26:10;17.00;79.70
11836;DHT22;5977;51.972;7.640;2023-04-01T03:28:37;17.00;80.60
11836;DHT22;5977;51.972;7.640;2023-04-01T03:31:07;17.10;80.00
11836;DHT22;5977;51.972;7.640;2023-04-01T03:33:41;17.10;80.10
11836;DHT22;5977;51.972;7.640;2023-04-01T03:36:09;17.10;79.60
11836;DHT22;5977;51.972;7.640;2023-04-01T03:38:40;16.90;79.50
11836;DHT22;5977;51.972;7.640;2023-04-01T03:41:11;16.90;80.00
11836;DHT22;5977;51.972;7.640;2023-04-01T03:43:40;17.00;80.10
11836;DHT22;5977;51.972;7.640;2023-04-01T03:46:09;17.00;80.00
11836;DHT22;5977;51.972;7.640;2023-04-01T03:48:37;17.00;80.40
11836;DHT22;5977;51.972;7.640;2023-04-01T03:51:06;17.00;79.40
11836;DHT22;5977;51.972;7.640;2023-04-01T03:53:35;16.90;79.00
11836;DHT22;5977;51.972;7.640;2023-04-01T03:56:05;16.80;80.40
11836;DHT22;5977;51.972;7.640;2023-04-01T03:58:35;16.80;80.70
11836;DHT22;5977;51.972;7.640;2023-04-01T04:01:15;16.90;80.10
11836;DHT22;5977;51.972;7.640;2023-04-01T04:03:44;16.80;79.70
11836;DHT22;5977;51.972;7.640;2023-04-01T04:06:13;16.80;80.80
11836;DHT22;5977;51.972;7.640;2023-04-01T04:08:42;16.80;80.60
11836;DHT22;5977;51.972;7.640;2023-04-01T04:11:11;16.90;80.10
11836;DHT22;5977;51.972;7.640;2023-04-01T04:13:42;17.00;80.20
11836;DHT22;5977;51.972;7.640;2023-04-01T04:16:10;17.10;79.80
11836;DHT22;5977;51.972;7.640;2023-04-01T04:18:44;16.90;79.60
11836;DHT22;5977;51.972;7.640;2023-04-01T04:21:13;16.80;80.50
11836;DHT22;5977;51.972;7.640;2023-04-01T04:23:42;16.90;80.10
11836;DHT22;5977;51.972;7.640;2023-04-01T04:26:13;17.00;80.00
11836;DHT22;5977;51.972;7.640;2023-04-01T04:28:46;17.00;79.60
11836;DHT22;5977;51.972;7.640;2023-04-01T04:31:18;17.00;79.60
11836;DHT22;5977;51.972;7.640;2023-04-01T04:33:48;17.00;79.60
11836;DHT22;5977;51.972;7.640;2023-04-01T04:36:16;17.10;79.40
11836;DHT22;5977;51.972;7.640;2023-04-01T04:38:45;17.00;78.80
11836;DHT22;5977;51.972;7.640;2023-04-01T04:41:14;17.00;79.70
11836;DHT22;5977;51.972;7.640;2023-04-01T04:43:51;17.00;80.00
11836;DHT22;5977;51.972;7.640;2023-04-01T04:46:21;17.00;80.00
11836;DHT22;5977;51.972;7.640;2023-04-01T04:48:56;16.90;80.30
11836;DHT22;5977;51.972;7.640;2023-04-01T04:51:25;16.90;80.90
11836;DHT22;5977;51.972;7.640;2023-04-01T04:53:53;17.10;81.10
11836;DHT22;5977;51.972;7.640;2023-04-01T04:56:32;16.80;79.50
11836;DHT22;5977;51.972;7.640;2023-04-01T04:59:05;16.80;81.20
11836;DHT22;5977;51.972;7.640;2023-04-01T05:01:42;17.00;81.00
11836;DHT22;5977;51.972;7.640;2023-04-01T05:04:11;16.90;80.60
11836;DHT22;5977;51.972;7.640;2023-04-01T05:06:39;17.00;80.50
11836;DHT22;5977;51.972;7.640;2023-04-01T05:09:07;17.00;80.70
11836;DHT22;5977;51.972;7.640;2023-04-01T05:11:35;17.00;80.00
11836;DHT22;5977;51.972;7.640;2023-04-01T05:14:03;17.00;80.20
11836;DHT22;5977;51.972;7.640;2023-04-01T05:16:32;17.00;80.80
11836;DHT22;5977;51.972;7.640;2023-04-01T05:19:00;17.00;81.00
11836;DHT22;5977;51.972;7.640;2023-04-01T05:21:29;17.10;81.00
11836;DHT22;5977;51.972;7.640;2023-04-01T05:23:57;17.10;80.50
11836;DHT22;5977;51.972;7.640;2023-04-01T05:26:25;17.00;79.40
11836;DHT22;5977;51.972;7.640;2023-04-01T05:28:53;17.20;80.00
11836;DHT22;5977;51.972;7.640;2023-04-01T05:31:21;17.40;79.30
11836;DHT22;5977;51.972;7.640;2023-04-01T05:33:51;17.50;79.00
11836;DHT22;5977;51.972;7.640;2023-04-01T05:36:20;17.50;78.50
11836;DHT22;5977;51.972;7.640;2023-04-01T05:38:49;17.40;78.20
11836;DHT22;5977;51.972;7.640;2023-04-01T05:41:19;17.40;79.40
11836;DHT22;5977;51.972;7.640;2023-04-01T05:43:46;17.10;78.10
11836;DHT22;5977;51.972;7.640;2023-04-01T05:46:34;17.10;78.80
11836;DHT22;5977;51.972;7.640;2023-04-01T05:49:09;17.20;78.80
11836;DHT22;5977;51.972;7.640;2023-04-01T05:51:37;17.30;78.50
11836;DHT22;5977;51.972;7.640;2023-04-01T05:54:08;17.40;78.30
11836;DHT22;5977;51.972;7.640;2023-04-01T05:56:37;17.50;78.00
11836;DHT22;5977;51.972;7.640;2023-04-01T05:59:05;17.50;77.90
11836;DHT22;5977;51.972;7.640;2023-04-01T06:01:33;17.40;78.00
11836;DHT22;5977;51.972;7.640;2023-04-01T06:04:01;17.40;78.10
11836;DHT22;5977;51.972;7.640;2023-04-01T06:06:31;17.50;78.10
11836;DHT22;5977;51.972;7.640;2023-04-01T06:09:13;17.50;77.70
11836;DHT22;5977;51.972;7.640;2023-04-01T06:11:56;17.60;77.70
11836;DHT22;5977;51.972;7.640;2023-04-01T06:14:35;17.60;77.60
11836;DHT22;5977;51.972;7.640;2023-04-01T06:17:19;17.50;78.70
11836;DHT22;5977;51.972;7.640;2023-04-01T06:19:53;17.60;77.80
11836;DHT22;5977;51.972;7.640;2023-04-01T06:22:53;17.40;77.60
11836;DHT22;5977;51.972;7.640;2023-04-01T06:25:43;17.20;77.70
11836;DHT22;5977;51.972;7.640;2023-04-01T06:28:43;17.20;77.90
11836;DHT22;5977;51.972;7.640;2023-04-01T06:34:39;17.20;77.70
11836;DHT22;5977;51.972;7.640;2023-04-01T06:37:20;17.00;78.10
11836;DHT22;5977;51.972;7.640;2023-04-01T06:40:04;17.40;78.60
11836;DHT22;5977;51.972;7.640;2023-04-01T06:42:46;17.60;77.60
11836;DHT22;5977;51.972;7.640;2023-04-01T06:45:41;17.50;77.40
11836;DHT22;5977;51.972;7.640;2023-04-01T06:48:56;17.70;77.40
11836;DHT22;5977;51.972;7.640;2023-04-01T06:51:47;17.80;76.80
11836;DHT22;5977;51.972;7.640;2023-04-01T06:54:38;17.60;76.60
11836;DHT22;5977;51.972;7.640;2023-04-01T06:57:31;17.20;77.30
11836;DHT22;5977;51.972;7.640;2023-04-01T07:00:04;17.40;78.00
11836;DHT22;5977;51.972;7.640;2023-04-01T07:02:38;17.70;77.70
11836;DHT22;5977;51.972;7.640;2023-04-01T07:05:11;17.90;77.30
11836;DHT22;5977;51.972;7.640;2023-04-01T07:07:42;17.90;76.90
11836;DHT22;5977;51.972;7.640;2023-04-01T07:10:16;17.80;76.70
11836;DHT22;5977;51.972;7.640;2023-04-01T07:13:27;17.80;76.70
11836;DHT22;5977;51.972;7.640;2023-04-01T07:16:07;17.70;77.10
11836;DHT22;5977;51.972;7.640;2023-04-01T07:18:42;17.70;77.50
11836;DHT22;5977;51.972;7.640;2023-04-01T07:21:23;17.70;77.30
11836;DHT22;5977;51.972;7.640;2023-04-01T07:23:57;17.80;77.30
11836;DHT22;5977;51.972;7.640;2023-04-01T07:26:36;17.90;77.60
11836;DHT22;5977;51.972;7.640;2023-04-01T07:29:09;17.70;77.10
11836;DHT22;5977;51.972;7.640;2023-04-01T07:34:42;18.00;77.50
11836;DHT22;5977;51.972;7.640;2023-04-01T07:37:17;18.00;77.30
11836;DHT22;5977;51.972;7.640;2023-04-01T07:39:52;17.80;76.90
11836;DHT22;5977;51.972;7.640;2023-04-01T07:42:41;17.70;78.10
11836;DHT22;5977;51.972;7.640;2023-04-01T07:45:17;18.00;77.90
11836;DHT22;5977;51.972;7.640;2023-04-01T07:48:00;18.00;77.30
11836;DHT22;5977;51.972;7.640;2023-04-01T07:50:31;18.00;77.50
11836;DHT22;5977;51.972;7.640;2023-04-01T07:53:09;18.00;77.80
11836;DHT22;5977;51.972;7.640;2023-04-01T07:55:43;18.00;77.80
11836;DHT22;5977;51.972;7.640;2023-04-01T07:58:23;17.80;78.20
11836;DHT22;5977;51.972;7.640;2023-04-01T08:00:58;18.00;77.70
11836;DHT22;5977;51.972;7.640;2023-04-01T08:03:54;17.90;77.50
11836;DHT22;5977;51.972;7.640;2023-04-01T08:06:32;17.90;77.40
11836;DHT22;5977;51.972;7.640;2023-04-01T08:09:12;17.90;76.60
11836;DHT22;5977;51.972;7.640;2023-04-01T08:12:18;18.00;77.30
11836;DHT22;5977;51.972;7.640;2023-04-01T08:15:08;18.10;76.70
11836;DHT22;5977;51.972;7.640;2023-04-01T08:18:05;18.20;76.60
11836;DHT22;5977;51.972;7.640;2023-04-01T08:20:39;17.80;76.90
11836;DHT22;5977;51.972;7.640;2023-04-01T08:23:13;17.80;77.60
11836;DHT22;5977;51.972;7.640;2023-04-01T08:25:48;17.90;78.20
11836;DHT22;5977;51.972;7.640;2023-04-01T08:28:24;17.90;77.50
11836;DHT22;5977;51.972;7.640;2023-04-01T08:30:58;17.80;77.00
11836;DHT22;5977;51.972;7.640;2023-04-01T08:33:30;17.70;76.90
11836;DHT22;5977;51.972;7.640;2023-04-01T08:36:10;17.60;77.10
11836;DHT22;5977;51.972;7.640;2023-04-01T08:38:44;17.60;77.30
11836;DHT22;5977;51.972;7.640;2023-04-01T08:45:18;17.70;77.10
11836;DHT22;5977;51.972;7.640;2023-04-01T08:48:21;17.70;76.80
11836;DHT22;5977;51.972;7.640;2023-04-01T08:54:14;17.70;76.60
11836;DHT22;5977;51.972;7.640;2023-04-01T08:56:53;17.70;76.30
11836;DHT22;5977;51.972;7.640;2023-04-01T08:59:36;17.60;76.40
11836;DHT22;5977;51.972;7.640;2023-04-01T09:05:38;17.50;77.80
11836;DHT22;5977;51.972;7.640;2023-04-01T09:08:22;17.50;79.70
11836;DHT22;5977;51.972;7.640;2023-04-01T09:11:02;17.60;83.60
11836;DHT22;5977;51.972;7.640;2023-04-01T09:20:33;17.90;84.60
11836;DHT22;5977;51.972;7.640;2023-04-01T09:23:29;18.00;84.90
11836;DHT22;5977;51.972;7.640;2023-04-01T09:26:12;18.10;84.40
11836;DHT22;5977;51.972;7.640;2023-04-01T09:28:53;18.10;83.70
11836;DHT22;5977;51.972;7.640;2023-04-01T09:31:48;18.10;83.00
11836;DHT22;5977;51.972;7.640;2023-04-01T09:34:54;17.90;83.00
11836;DHT22;5977;51.972;7.640;2023-04-01T09:37:39;18.10;83.20
11836;DHT22;5977;51.972;7.640;2023-04-01T09:40:31;18.10;82.00
11836;DHT22;5977;51.972;7.640;2023-04-01T09:43:21;18.10;82.10
11836;DHT22;5977;51.972;7.640;2023-04-01T09:46:04;18.10;81.70
11836;DHT22;5977;51.972;7.640;2023-04-01T09:51:36;18.10;80.90
11836;DHT22;5977;51.972;7.640;2023-04-01T09:54:16;18.20;81.00
11836;DHT22;5977;51.972;7.640;2023-04-01T10:00:19;18.20;80.40
11836;DHT22;5977;51.972;7.640;2023-04-01T10:06:36;18.10;80.00
11836;DHT22;5977;51.972;7.640;2023-04-01T10:15:48;18.30;79.00
11836;DHT22;5977;51.972;7.640;2023-04-01T10:19:03;18.30;79.00
11836;DHT22;5977;51.972;7.640;2023-04-01T10:21:57;18.00;79.20
11836;DHT22;5977;51.972;7.640;2023-04-01T10:24:51;17.90;79.00
11836;DHT22;5977;51.972;7.640;2023-04-01T10:27:43;18.20;79.30
11836;DHT22;5977;51.972;7.640;2023-04-01T10:31:13;18.30;78.70
11836;DHT22;5977;51.972;7.640;2023-04-01T10:34:02;18.30;78.10
11836;DHT22;5977;51.972;7.640;2023-04-01T10:36:47;18.40;77.90
11836;DHT22;5977;51.972;7.640;2023-04-01T10:39:59;18.50;77.50
11836;DHT22;5977;51.972;7.640;2023-04-01T10:43:12;18.50;77.80
11836;DHT22;5977;51.972;7.640;2023-04-01T10:52:27;18.00;78.00
11836;DHT22;5977;51.972;7.640;2023-04-01T10:55:53;18.30;79.30
11836;DHT22;5977;51.972;7.640;2023-04-01T11:06:02;18.80;77.50
11836;DHT22;5977;51.972;7.640;2023-04-01T11:15:55;19.00;77.30
11836;DHT22;5977;51.972;7.640;2023-04-01T11:21:54;18.80;77.20
11836;DHT22;5977;51.972;7.640;2023-04-01T11:25:05;18.90;77.30
11836;DHT22;5977;51.972;7.640;2023-04-01T11:31:04;18.80;76.40
11836;DHT22;5977;51.972;7.640;2023-04-01T11:33:57;18.90;76.50
11836;DHT22;5977;51.972;7.640;2023-04-01T11:36:39;18.90;76.30
11836;DHT22;5977;51.972;7.640;2023-04-01T11:39:22;18.70;76.60
11836;DHT22;5977;51.972;7.640;2023-04-01T11:42:20;18.70;77.40
11836;DHT22;5977;51.972;7.640;2023-04-01T11:45:32;18.70;77.50
11836;DHT22;5977;51.972;7.640;2023-04-01T11:48:51;18.60;77.90
11836;DHT22;5977;51.972;7.640;2023-04-01T11:54:43;18.60;77.50
11836;DHT22;5977;51.972;7.640;2023-04-01T11:57:43;18.60;77.90
11836;DHT22;5977;51.972;7.640;2023-04-01T12:00:48;18.60;77.90
11836;DHT22;5977;51.972;7.640;2023-04-01T12:03:37;18.60;78.00
11836;DHT22;5977;51.972;7.640;2023-04-01T12:06:09;18.60;77.90
11836;DHT22;5977;51.972;7.640;2023-04-01T12:08:48;18.60;78.00
11836;DHT22;5977;51.972;7.640;2023-04-01T12:11:26;18.70;77.80
11836;DHT22;5977;51.972;7.640;2023-04-01T12:14:03;18.60;77.60
11836;DHT22;5977;51.972;7.640;2023-04-01T12:16:52;18.70;77.70
11836;DHT22;5977;51.972;7.640;2023-04-01T12:19:32;18.80;77.50
11836;DHT22;5977;51.972;7.640;2023-04-01T12:22:26;18.70;77.60
11836;DHT22;5977;51.972;7.640;2023-04-01T12:25:11;18.60;77.80
11836;DHT22;5977;51.972;7.640;2023-04-01T12:27:49;18.50;78.00
11836;DHT22;5977;51.972;7.640;2023-04-01T12:30:35;18.50;79.30
11836;DHT22;5977;51.972;7.640;2023-04-01T12:36:12;18.80;78.20
11836;DHT22;5977;51.972;7.640;2023-04-01T12:38:51;18.70;78.50
11836;DHT22;5977;51.972;7.640;2023-04-01T12:41:29;18.70;77.50
11836;DHT22;5977;51.972;7.640;2023-04-01T12:44:26;18.80;77.20
11836;DHT22;5977;51.972;7.640;2023-04-01T12:47:13;18.80;77.30
11836;DHT22;5977;51.972;7.640;2023-04-01T12:49:57;18.70;77.50
11836;DHT22;5977;51.972;7.640;2023-04-01T12:52:42;18.80;77.50
11836;DHT22;5977;51.972;7.640;2023-04-01T12:55:36;18.90;77.60
11836;DHT22;5977;51.972;7.640;2023-04-01T12:58:56;18.90;77.00
11836;DHT22;5977;51.972;7.640;2023-04-01T13:02:01;18.80;77.00
11836;DHT22;5977;51.972;7.640;2023-04-01T13:04:56;18.70;77.50
11836;DHT22;5977;51.972;7.640;2023-04-01T13:07:47;18.70;77.60
11836;DHT22;5977;51.972;7.640;2023-04-01T13:10:37;18.70;77.60
11836;DHT22;5977;51.972;7.640;2023-04-01T13:13:52;18.80;77.50
11836;DHT22;5977;51.972;7.640;2023-04-01T13:16:27;18.70;77.20
11836;DHT22;5977;51.972;7.640;2023-04-01T13:19:02;18.60;77.50
11836;DHT22;5977;51.972;7.640;2023-04-01T13:21:39;18.60;77.90
11836;DHT22;5977;51.972;7.640;2023-04-01T13:24:21;18.60;77.90
11836;DHT22;5977;51.972;7.640;2023-04-01T13:26:56;18.60;77.80
11836;DHT22;5977;51.972;7.640;2023-04-01T13:29:30;18.70;77.80
11836;DHT22;5977;51.972;7.640;2023-04-01T13:32:15;18.70;77.80
11836;DHT22;5977;51.972;7.640;2023-04-01T13:34:55;18.70;77.70
11836;DHT22;5977;51.972;7.640;2023-04-01T13:37:39;18.80;77.80
11836;DHT22;5977;51.972;7.640;2023-04-01T13:40:34;18.80;77.30
11836;DHT22;5977;51.972;7.640;2023-04-01T13:43:15;18.90;77.30
11836;DHT22;5977;51.972;7.640;2023-04-01T13:46:08;18.90;77.10
11836;DHT22;5977;51.972;7.640;2023-04-01T13:49:01;19.10;76.60
11836;DHT22;5977;51.972;7.640;2023-04-01T13:52:03;19.20;76.20
11836;DHT22;5977;51.972;7.640;2023-04-01T13:54:54;19.10;76.10
11836;DHT22;5977;51.972;7.640;2023-04-01T13:57:41;19.00;76.40
11836;DHT22;5977;51.972;7.640;2023-04-01T14:00:22;19.10;76.50
11836;DHT22;5977;51.972;7.640;2023-04-01T14:03:03;19.00;76.60
11836;DHT22;5977;51.972;7.640;2023-04-01T14:05:56;19.00;76.80
11836;DHT22;5977;51.972;7.640;2023-04-01T14:08:42;19.00;77.00
11836;DHT22;5977;51.972;7.640;2023-04-01T14:11:20;19.00;77.00
11836;DHT22;5977;51.972;7.640;2023-04-01T14:13:58;18.90;77.00
11836;DHT22;5977;51.972;7.640;2023-04-01T14:16:49;18.90;76.80
11836;DHT22;5977;51.972;7.640;2023-04-01T14:19:27;18.90;76.40
11836;DHT22;5977;51.972;7.640;2023-04-01T14:22:03;19.00;76.30
11836;DHT22;5977;51.972;7.640;2023-04-01T14:24:46;19.00;76.00
11836;DHT22;5977;51.972;7.640;2023-04-01T14:27:27;18.90;76.50
11836;DHT22;5977;51.972;7.640;2023-04-01T14:30:11;19.00;76.90
11836;DHT22;5977;51.972;7.640;2023-04-01T14:32:48;19.10;77.90
11836;DHT22;5977;51.972;7.640;2023-04-01T14:35:35;19.00;76.30
11836;DHT22;5977;51.972;7.640;2023-04-01T14:41:02;18.90;76.20
11836;DHT22;5977;51.972;7.640;2023-04-01T14:43:54;18.90;76.00
11836;DHT22;5977;51.972;7.640;2023-04-01T14:46:44;18.90;75.60
11836;DHT22;5977;51.972;7.640;2023-04-01T14:49:20;19.00;75.90
11836;DHT22;5977;51.972;7.640;2023-04-01T14:51:52;18.90;75.80
11836;DHT22;5977;51.972;7.640;2023-04-01T14:54:30;18.80;75.90
11836;DHT22;5977;51.972;7.640;2023-04-01T14:57:09;18.90;76.70
11836;DHT22;5977;51.972;7.640;2023-04-01T14:59:40;18.90;76.40
11836;DHT22;5977;51.972;7.640;2023-04-01T15:02:21;18.90;76.60
11836;DHT22;5977;51.972;7.640;2023-04-01T15:04:58;19.00;76.50
11836;DHT22;5977;51.972;7.640;2023-04-01T15:08:05;19.00;77.20
11836;DHT22;5977;51.972;7.640;2023-04-01T15:10:57;18.70;76.40
11836;DHT22;5977;51.972;7.640;2023-04-01T15:16:33;18.90;77.00
11836;DHT22;5977;51.972;7.640;2023-04-01T15:19:16;18.90;76.60
11836;DHT22;5977;51.972;7.640;2023-04-01T15:21:59;18.90;76.60
11836;DHT22;5977;51.972;7.640;2023-04-01T15:24:43;18.70;76.20
11836;DHT22;5977;51.972;7.640;2023-04-01T15:27:22;18.80;77.00
11836;DHT22;5977;51.972;7.640;2023-04-01T15:30:18;18.80;76.70
11836;DHT22;5977;51.972;7.640;2023-04-01T15:32:58;18.70;77.10
11836;DHT22;5977;51.972;7.640;2023-04-01T15:35:39;18.60;77.10
11836;DHT22;5977;51.972;7.640;2023-04-01T15:38:14;18.60;77.90
11836;DHT22;5977;51.972;7.640;2023-04-01T15:40:48;18.60;78.60
11836;DHT22;5977;51.972;7.640;2023-04-01T15:43:27;18.60;78.40
11836;DHT22;5977;51.972;7.640;2023-04-01T15:46:14;18.20;78.80
11836;DHT22;5977;51.972;7.640;2023-04-01T15:49:01;18.50;78.50
11836;DHT22;5977;51.972;7.640;2023-04-01T15:51:54;18.50;78.00
11836;DHT22;5977;51.972;7.640;2023-04-01T15:54:30;18.60;77.90
11836;DHT22;5977;51.972;7.640;2023-04-01T15:57:09;18.10;78.60
11836;DHT22;5977;51.972;7.640;2023-04-01T15:59:56;18.10;79.70
11836;DHT22;5977;51.972;7.640;2023-04-01T16:02:43;18.30;79.10
11836;DHT22;5977;51.972;7.640;2023-04-01T16:05:27;18.50;77.90
11836;DHT22;5977;51.972;7.640;2023-04-01T16:08:07;17.90;78.50
11836;DHT22;5977;51.972;7.640;2023-04-01T16:10:52;18.00;80.30
11836;DHT22;5977;51.972;7.640;2023-04-01T16:13:35;18.10;80.00
11836;DHT22;5977;51.972;7.640;2023-04-01T16:16:17;17.80;80.30
11836;DHT22;5977;51.972;7.640;2023-04-01T16:19:18;17.70;80.90
11836;DHT22;5977;51.972;7.640;2023-04-01T16:21:54;17.80;80.30
11836;DHT22;5977;51.972;7.640;2023-04-01T16:24:33;17.70;81.10
11836;DHT22;5977;51.972;7.640;2023-04-01T16:27:04;17.70;82.00
11836;DHT22;5977;51.972;7.640;2023-04-01T16:29:40;17.50;82.80
11836;DHT22;5977;51.972;7.640;2023-04-01T16:32:21;17.50;83.30
11836;DHT22;5977;51.972;7.640;2023-04-01T16:34:58;17.80;83.00
11836;DHT22;5977;51.972;7.640;2023-04-01T16:37:33;17.60;82.70
11836;DHT22;5977;51.972;7.640;2023-04-01T16:40:14;17.10;84.50
11836;DHT22;5977;51.972;7.640;2023-04-01T16:42:49;17.70;83.70
11836;DHT22;5977;51.972;7.640;2023-04-01T16:45:32;17.30;82.30
11836;DHT22;5977;51.972;7.640;2023-04-01T16:48:07;17.20;84.10
11836;DHT22;5977;51.972;7.640;2023-04-01T16:50:48;17.30;83.90
11836;DHT22;5977;51.972;7.640;2023-04-01T16:53:29;17.30;83.80
11836;DHT22;5977;51.972;7.640;2023-04-01T16:56:07;17.40;84.00
11836;DHT22;5977;51.972;7.640;2023-04-01T16:58:41;17.30;82.80
11836;DHT22;5977;51.972;7.640;2023-04-01T17:01:13;17.30;84.10
11836;DHT22;5977;51.972;7.640;2023-04-01T17:03:46;17.50;82.70
11836;DHT22;5977;51.972;7.640;2023-04-01T17:06:25;17.30;83.60
11836;DHT22;5977;51.972;7.640;2023-04-01T17:09:13;17.30;82.10
11836;DHT22;5977;51.972;7.640;2023-04-01T17:11:49;17.00;83.60
11836;DHT22;5977;51.972;7.640;2023-04-01T17:14:25;17.00;84.40
11836;DHT22;5977;51.972;7.640;2023-04-01T17:17:05;17.00;83.90
11836;DHT22;5977;51.972;7.640;2023-04-01T17:19:45;16.90;83.50
11836;DHT22;5977;51.972;7.640;2023-04-01T17:22:25;16.90;82.80
11836;DHT22;5977;51.972;7.640;2023-04-01T17:28:13;16.90;82.50
11836;DHT22;5977;51.972;7.640;2023-04-01T17:30:47;16.80;82.70
11836;DHT22;5977;51.972;7.640;2023-04-01T17:36:30;16.70;83.10
11836;DHT22;5977;51.972;7.640;2023-04-01T17:39:09;16.70;83.80
11836;DHT22;5977;51.972;7.640;2023-04-01T17:41:47;16.70;85.40
11836;DHT22;5977;51.972;7.640;2023-04-01T17:44:22;16.70;82.10
11836;DHT22;5977;51.972;7.640;2023-04-01T17:47:17;16.40;83.00
11836;DHT22;5977;51.972;7.640;2023-04-01T17:49:56;16.50;84.80
11836;DHT22;5977;51.972;7.640;2023-04-01T17:52:29;16.60;84.70
11836;DHT22;5977;51.972;7.640;2023-04-01T17:58:05;16.50;82.30
11836;DHT22;5977;51.972;7.640;2023-04-01T18:00:50;16.30;83.30
11836;DHT22;5977;51.972;7.640;2023-04-01T18:03:26;16.50;81.80
11836;DHT22;5977;51.972;7.640;2023-04-01T18:06:03;16.10;82.50
11836;DHT22;5977;51.972;7.640;2023-04-01T18:08:55;16.00;83.40
11836;DHT22;5977;51.972;7.640;2023-04-01T18:11:34;16.10;84.30
11836;DHT22;5977;51.972;7.640;2023-04-01T18:17:23;16.60;83.50
11836;DHT22;5977;51.972;7.640;2023-04-01T18:20:07;16.40;81.70
11836;DHT22;5977;51.972;7.640;2023-04-01T18:22:42;16.00;81.50
11836;DHT22;5977;51.972;7.640;2023-04-01T18:25:20;16.10;83.90
11836;DHT22;5977;51.972;7.640;2023-04-01T18:27:51;15.90;81.80
11836;DHT22;5977;51.972;7.640;2023-04-01T18:30:25;16.40;81.40
11836;DHT22;5977;51.972;7.640;2023-04-01T18:32:58;16.10;80.90
11836;DHT22;5977;51.972;7.640;2023-04-01T18:35:34;16.00;80.00
11836;DHT22;5977;51.972;7.640;2023-04-01T18:38:13;16.10;81.60